createdAt,value
2017-06-12T00:00:38.322Z,0
2017-06-12T00:01:37.993Z,0
2017-06-12T00:02:38.619Z,0
2017-06-12T00:03:38.292Z,0
2017-06-12T00:04:38.593Z,0
2017-06-12T00:05:37.960Z,0
2017-06-12T00:06:38.258Z,0
2017-06-12T00:07:38.565Z,0
2017-06-12T00:08:38.244Z,0
2017-06-12T00:09:38.547Z,0
2017-06-12T00:10:38.536Z,0
2017-06-12T00:11:37.910Z,0
2017-06-12T00:12:38.832Z,0
2017-06-12T00:13:38.818Z,0
2017-06-12T00:14:38.506Z,0
2017-06-12T00:15:38.796Z,0
2017-06-12T00:16:38.488Z,0
2017-06-12T00:17:38.785Z,0
2017-06-12T00:18:38.769Z,0
2017-06-12T00:19:38.764Z,0
2017-06-12T00:20:38.442Z,0
2017-06-12T00:21:38.429Z,0
2017-06-12T00:22:38.729Z,0
2017-06-12T00:23:38.416Z,0
2017-06-12T00:24:37.772Z,0
2017-06-12T00:25:38.385Z,0
2017-06-12T00:26:38.387Z,0
2017-06-12T00:27:38.685Z,0
2017-06-12T00:28:38.682Z,0
2017-06-12T00:29:38.348Z,0
2017-06-12T00:30:38.029Z,0
2017-06-12T00:31:38.327Z,0
2017-06-12T00:32:38.017Z,0
2017-06-12T00:33:37.998Z,0
2017-06-12T00:34:37.988Z,0
2017-06-12T00:35:38.344Z,0
2017-06-12T00:36:38.619Z,0
2017-06-12T00:37:38.269Z,0
2017-06-12T00:38:38.577Z,0
2017-06-12T00:39:38.562Z,0
2017-06-12T00:40:38.555Z,0
2017-06-12T00:41:38.231Z,0
2017-06-12T00:42:38.221Z,0
2017-06-12T00:43:37.924Z,0
2017-06-12T00:44:38.202Z,0
2017-06-12T00:45:37.566Z,0
2017-06-12T00:46:37.866Z,0
2017-06-12T00:47:38.184Z,0
2017-06-12T00:48:37.850Z,0
2017-06-12T00:49:38.150Z,0
2017-06-12T00:50:37.836Z,0
2017-06-12T00:51:37.822Z,0
2017-06-12T00:52:37.814Z,0
2017-06-12T00:53:37.796Z,0
2017-06-12T00:54:38.418Z,0
2017-06-12T00:55:38.091Z,0
2017-06-12T00:56:38.082Z,0
2017-06-12T00:57:38.074Z,0
2017-06-12T00:58:37.763Z,0
2017-06-12T00:59:38.375Z,0
2017-06-12T01:00:38.358Z,0
2017-06-12T01:01:37.720Z,0
2017-06-12T01:02:38.029Z,0
2017-06-12T01:03:38.330Z,0
2017-06-12T01:04:38.003Z,0
2017-06-12T01:05:38.003Z,0
2017-06-12T01:06:38.299Z,0
2017-06-12T01:07:37.980Z,0
2017-06-12T01:08:37.968Z,0
2017-06-12T01:09:37.958Z,0
2017-06-12T01:10:37.628Z,0
2017-06-12T01:11:38.247Z,0
2017-06-12T01:12:37.926Z,0
2017-06-12T01:13:38.250Z,0
2017-06-12T01:14:37.588Z,0
2017-06-12T01:15:37.952Z,0
2017-06-12T01:16:37.571Z,0
2017-06-12T01:17:37.873Z,0
2017-06-12T01:18:37.758Z,0
2017-06-12T01:19:37.544Z,0
2017-06-12T01:20:37.845Z,0
2017-06-12T01:21:37.836Z,0
2017-06-12T01:22:37.521Z,0
2017-06-12T01:23:37.507Z,0
2017-06-12T01:24:38.120Z,0
2017-06-12T01:25:37.795Z,0
2017-06-12T01:26:37.475Z,0
2017-06-12T01:27:37.467Z,0
2017-06-12T01:28:38.082Z,0
2017-06-12T01:29:37.450Z,0
2017-06-12T01:30:37.120Z,0
2017-06-12T01:31:38.048Z,0
2017-06-12T01:32:38.043Z,0
2017-06-12T01:33:38.026Z,0
2017-06-12T01:34:37.082Z,0
2017-06-12T01:35:37.695Z,0
2017-06-12T01:36:37.693Z,0
2017-06-12T01:37:37.680Z,0
2017-06-12T01:38:37.040Z,0
2017-06-12T01:39:37.657Z,0
2017-06-12T01:40:37.647Z,0
2017-06-12T01:41:37.976Z,0
2017-06-12T01:42:37.318Z,0
2017-06-12T01:43:37.623Z,0
2017-06-12T01:44:36.983Z,0
2017-06-12T01:45:37.293Z,0
2017-06-12T01:46:37.586Z,0
2017-06-12T01:47:36.949Z,0
2017-06-12T01:48:37.257Z,0
2017-06-12T01:49:37.245Z,0
2017-06-12T01:50:37.555Z,0
2017-06-12T01:51:37.536Z,0
2017-06-12T01:52:37.531Z,0
2017-06-12T01:53:37.202Z,0
2017-06-12T01:54:37.194Z,0
2017-06-12T01:55:37.187Z,0
2017-06-12T01:56:37.801Z,0
2017-06-12T01:57:37.501Z,0
2017-06-12T01:58:37.467Z,0
2017-06-12T01:59:37.773Z,0
2017-06-12T02:00:37.754Z,0
2017-06-12T02:01:37.434Z,0
2017-06-12T02:02:37.738Z,0
2017-06-12T02:03:37.205Z,0
2017-06-12T02:04:37.430Z,0
2017-06-12T02:05:37.710Z,0
2017-06-12T02:06:37.384Z,0
2017-06-12T02:07:37.381Z,0
2017-06-12T02:08:37.681Z,0
2017-06-12T02:09:37.687Z,0
2017-06-12T02:10:37.655Z,0
2017-06-12T02:11:37.337Z,0
2017-06-12T02:12:37.010Z,0
2017-06-12T02:13:37.312Z,0
2017-06-12T02:14:37.306Z,0
2017-06-12T02:15:36.988Z,0
2017-06-12T02:16:37.289Z,0
2017-06-12T02:17:36.967Z,0
2017-06-12T02:18:37.266Z,0
2017-06-12T02:19:37.256Z,0
2017-06-12T02:20:37.251Z,0
2017-06-12T02:21:37.553Z,0
2017-06-12T02:22:37.540Z,0
2017-06-12T02:23:36.908Z,0
2017-06-12T02:24:37.208Z,0
2017-06-12T02:25:37.195Z,0
2017-06-12T02:26:37.193Z,0
2017-06-12T02:27:37.082Z,0
2017-06-12T02:28:36.856Z,0
2017-06-12T02:29:36.843Z,0
2017-06-12T02:30:36.837Z,0
2017-06-12T02:31:37.141Z,0
2017-06-12T02:32:37.127Z,0
2017-06-12T02:33:36.807Z,0
2017-06-12T02:34:37.122Z,0
2017-06-12T02:35:36.780Z,4
2017-06-12T02:36:37.397Z,4
2017-06-12T02:37:37.167Z,0
2017-06-12T02:38:37.059Z,4
2017-06-12T02:39:37.051Z,4
2017-06-12T02:40:37.357Z,4
2017-06-12T02:41:37.030Z,8
2017-06-12T02:42:37.030Z,4
2017-06-12T02:43:37.012Z,8
2017-06-12T02:44:37.001Z,4
2017-06-12T02:45:37.304Z,8
2017-06-12T02:46:37.290Z,8
2017-06-12T02:47:36.969Z,12
2017-06-12T02:48:36.960Z,8
2017-06-12T02:49:36.949Z,12
2017-06-12T02:50:36.628Z,12
2017-06-12T02:51:36.622Z,16
2017-06-12T02:52:37.243Z,16
2017-06-12T02:53:36.912Z,24
2017-06-12T02:54:36.275Z,28
2017-06-12T02:55:36.886Z,28
2017-06-12T02:56:36.565Z,28
2017-06-12T02:57:36.241Z,32
2017-06-12T02:58:36.547Z,36
2017-06-12T02:59:36.855Z,40
2017-06-12T03:00:36.839Z,44
2017-06-12T03:01:37.139Z,48
2017-06-12T03:02:36.816Z,56
2017-06-12T03:03:36.811Z,64
2017-06-12T03:04:36.792Z,68
2017-06-12T03:05:36.787Z,72
2017-06-12T03:06:36.774Z,80
2017-06-12T03:07:36.449Z,88
2017-06-12T03:08:36.753Z,100
2017-06-12T03:09:36.741Z,112
2017-06-12T03:10:36.413Z,124
2017-06-12T03:11:36.412Z,132
2017-06-12T03:12:36.711Z,144
2017-06-12T03:13:36.701Z,160
2017-06-12T03:14:36.373Z,172
2017-06-12T03:15:36.366Z,180
2017-06-12T03:16:36.981Z,192
2017-06-12T03:17:36.342Z,200
2017-06-12T03:18:37.161Z,216
2017-06-12T03:19:36.630Z,228
2017-06-12T03:20:36.939Z,244
2017-06-12T03:21:36.621Z,256
2017-06-12T03:22:36.599Z,268
2017-06-12T03:23:36.905Z,284
2017-06-12T03:24:36.575Z,300
2017-06-12T03:25:36.883Z,312
2017-06-12T03:26:36.248Z,328
2017-06-12T03:27:36.546Z,344
2017-06-12T03:28:36.535Z,360
2017-06-12T03:29:36.522Z,376
2017-06-12T03:30:36.517Z,392
2017-06-12T03:31:36.503Z,404
2017-06-12T03:32:36.493Z,420
2017-06-12T03:33:36.478Z,436
2017-06-12T03:34:36.786Z,452
2017-06-12T03:35:36.476Z,460
2017-06-12T03:36:35.823Z,480
2017-06-12T03:37:36.752Z,524
2017-06-12T03:38:36.111Z,556
2017-06-12T03:39:36.100Z,528
2017-06-12T03:40:36.409Z,516
2017-06-12T03:41:36.085Z,532
2017-06-12T03:42:36.379Z,544
2017-06-12T03:43:36.684Z,560
2017-06-12T03:44:36.675Z,588
2017-06-12T03:45:35.724Z,612
2017-06-12T03:46:36.081Z,628
2017-06-12T03:47:36.690Z,648
2017-06-12T03:48:36.314Z,672
2017-06-12T03:49:35.991Z,700
2017-06-12T03:50:36.298Z,720
2017-06-12T03:51:36.279Z,740
2017-06-12T03:52:36.584Z,760
2017-06-12T03:53:36.264Z,784
2017-06-12T03:54:35.939Z,804
2017-06-12T03:55:36.548Z,828
2017-06-12T03:56:36.539Z,848
2017-06-12T03:57:36.208Z,868
2017-06-12T03:58:36.205Z,884
2017-06-12T03:59:36.188Z,904
2017-06-12T04:00:36.180Z,920
2017-06-12T04:01:35.855Z,932
2017-06-12T04:02:36.161Z,952
2017-06-12T04:03:35.835Z,972
2017-06-12T04:04:35.823Z,1000
2017-06-12T04:05:36.121Z,1020
2017-06-12T04:06:36.428Z,1040
2017-06-12T04:07:35.784Z,1056
2017-06-12T04:08:35.467Z,1072
2017-06-12T04:09:36.389Z,1092
2017-06-12T04:10:36.379Z,1104
2017-06-12T04:11:36.049Z,1116
2017-06-12T04:12:36.041Z,1124
2017-06-12T04:13:36.031Z,1136
2017-06-12T04:14:36.330Z,1144
2017-06-12T04:15:36.322Z,1156
2017-06-12T04:16:35.688Z,1172
2017-06-12T04:17:36.295Z,1196
2017-06-12T04:18:35.668Z,1216
2017-06-12T04:19:36.280Z,1232
2017-06-12T04:20:35.959Z,1248
2017-06-12T04:21:35.940Z,1264
2017-06-12T04:22:35.931Z,1272
2017-06-12T04:23:36.299Z,1284
2017-06-12T04:24:36.224Z,1304
2017-06-12T04:25:36.207Z,1324
2017-06-12T04:26:35.884Z,1344
2017-06-12T04:27:35.876Z,1368
2017-06-12T04:28:35.544Z,1392
2017-06-12T04:29:35.537Z,1420
2017-06-12T04:30:35.524Z,1476
2017-06-12T04:31:35.517Z,1564
2017-06-12T04:32:35.502Z,1696
2017-06-12T04:33:36.004Z,1860
2017-06-12T04:34:35.501Z,1992
2017-06-12T04:35:35.783Z,1932
2017-06-12T04:36:35.766Z,1924
2017-06-12T04:37:35.759Z,1984
2017-06-12T04:38:35.742Z,2116
2017-06-12T04:39:35.425Z,2192
2017-06-12T04:40:35.409Z,2116
2017-06-12T04:41:35.398Z,2052
2017-06-12T04:42:35.704Z,1956
2017-06-12T04:43:35.370Z,1892
2017-06-12T04:44:35.365Z,1948
2017-06-12T04:45:35.041Z,2096
2017-06-12T04:46:35.652Z,2196
2017-06-12T04:47:35.955Z,2292
2017-06-12T04:48:35.321Z,2416
2017-06-12T04:49:35.621Z,2476
2017-06-12T04:50:35.294Z,2532
2017-06-12T04:51:35.287Z,2536
2017-06-12T04:52:35.584Z,2304
2017-06-12T04:53:35.885Z,2068
2017-06-12T04:54:34.936Z,1904
2017-06-12T04:55:35.871Z,1848
2017-06-12T04:56:35.542Z,1816
2017-06-12T04:57:35.550Z,1804
2017-06-12T04:58:35.209Z,1760
2017-06-12T04:59:35.508Z,1764
2017-06-12T05:00:35.810Z,1712
2017-06-12T05:01:35.480Z,1676
2017-06-12T05:02:35.471Z,1712
2017-06-12T05:03:35.463Z,1756
2017-06-12T05:04:35.768Z,1896
2017-06-12T05:05:35.749Z,2184
2017-06-12T05:06:35.744Z,2468
2017-06-12T05:07:35.103Z,2676
2017-06-12T05:08:35.409Z,2756
2017-06-12T05:09:35.703Z,2888
2017-06-12T05:10:34.755Z,2656
2017-06-12T05:11:35.052Z,2532
2017-06-12T05:12:35.681Z,2576
2017-06-12T05:13:35.687Z,2960
2017-06-12T05:14:35.335Z,3624
2017-06-12T05:15:35.010Z,3812
2017-06-12T05:16:35.314Z,3348
2017-06-12T05:17:34.990Z,2836
2017-06-12T05:18:35.497Z,2732
2017-06-12T05:19:34.653Z,2876
2017-06-12T05:20:35.271Z,3296
2017-06-12T05:21:35.259Z,3572
2017-06-12T05:22:35.258Z,3492
2017-06-12T05:23:35.243Z,3096
2017-06-12T05:24:35.264Z,2828
2017-06-12T05:25:35.216Z,2668
2017-06-12T05:26:35.521Z,2708
2017-06-12T05:27:35.198Z,2820
2017-06-12T05:28:34.890Z,3088
2017-06-12T05:29:35.170Z,3220
2017-06-12T05:30:35.158Z,3496
2017-06-12T05:31:35.151Z,3500
2017-06-12T05:32:34.852Z,3456
2017-06-12T05:33:35.231Z,3712
2017-06-12T05:34:35.117Z,3696
2017-06-12T05:35:35.273Z,3812
2017-06-12T05:36:35.114Z,3760
2017-06-12T05:37:34.776Z,3740
2017-06-12T05:38:35.074Z,3900
2017-06-12T05:39:35.073Z,4128
2017-06-12T05:40:34.742Z,4236
2017-06-12T05:41:35.355Z,4264
2017-06-12T05:42:34.722Z,3936
2017-06-12T05:43:35.027Z,4084
2017-06-12T05:44:35.005Z,4416
2017-06-12T05:45:34.692Z,4204
2017-06-12T05:46:34.674Z,4072
2017-06-12T05:47:34.667Z,4216
2017-06-12T05:48:35.275Z,4248
2017-06-12T05:49:34.965Z,4284
2017-06-12T05:50:35.257Z,4284
2017-06-12T05:51:34.932Z,4244
2017-06-12T05:52:34.923Z,4216
2017-06-12T05:53:34.599Z,4664
2017-06-12T05:54:35.212Z,4688
2017-06-12T05:55:34.912Z,4568
2017-06-12T05:56:34.878Z,4412
2017-06-12T05:57:34.622Z,4312
2017-06-12T05:58:34.550Z,4452
2017-06-12T05:59:35.212Z,4712
2017-06-12T06:00:34.845Z,4820
2017-06-12T06:01:34.511Z,5024
2017-06-12T06:02:34.507Z,5164
2017-06-12T06:03:34.811Z,5152
2017-06-12T06:04:34.793Z,4788
2017-06-12T06:05:34.787Z,4668
2017-06-12T06:06:34.481Z,4720
2017-06-12T06:07:34.449Z,4100
2017-06-12T06:08:34.757Z,4188
2017-06-12T06:09:34.742Z,4516
2017-06-12T06:10:34.732Z,4888
2017-06-12T06:11:34.773Z,4400
2017-06-12T06:12:34.801Z,4884
2017-06-12T06:13:34.385Z,5296
2017-06-12T06:14:34.396Z,4880
2017-06-12T06:15:34.701Z,5192
2017-06-12T06:16:34.686Z,4592
2017-06-12T06:17:34.655Z,4100
2017-06-12T06:18:34.338Z,4344
2017-06-12T06:19:34.327Z,6264
2017-06-12T06:20:34.631Z,5968
2017-06-12T06:21:34.941Z,4828
2017-06-12T06:22:34.924Z,5560
2017-06-12T06:23:34.601Z,5468
2017-06-12T06:24:33.954Z,5396
2017-06-12T06:25:34.263Z,5464
2017-06-12T06:26:34.568Z,5028
2017-06-12T06:27:34.241Z,4096
2017-06-12T06:28:34.230Z,3856
2017-06-12T06:29:34.535Z,3432
2017-06-12T06:30:34.840Z,3264
2017-06-12T06:31:34.530Z,3224
2017-06-12T06:32:34.831Z,3144
2017-06-12T06:33:34.493Z,3184
2017-06-12T06:34:34.187Z,3264
2017-06-12T06:35:34.476Z,3448
2017-06-12T06:36:34.458Z,3476
2017-06-12T06:37:34.797Z,3460
2017-06-12T06:38:34.452Z,3584
2017-06-12T06:39:34.115Z,3900
2017-06-12T06:40:33.803Z,4980
2017-06-12T06:41:34.096Z,6460
2017-06-12T06:42:34.400Z,6328
2017-06-12T06:43:34.705Z,5620
2017-06-12T06:44:34.377Z,7096
2017-06-12T06:45:34.368Z,7272
2017-06-12T06:46:34.041Z,6296
2017-06-12T06:47:34.364Z,6560
2017-06-12T06:48:34.665Z,7100
2017-06-12T06:49:34.325Z,6792
2017-06-12T06:50:34.004Z,6240
2017-06-12T06:51:34.304Z,6192
2017-06-12T06:52:33.672Z,5824
2017-06-12T06:53:33.969Z,6704
2017-06-12T06:54:34.272Z,6776
2017-06-12T06:55:33.953Z,6836
2017-06-12T06:56:34.275Z,6836
2017-06-12T06:57:34.280Z,7712
2017-06-12T06:58:33.606Z,7964
2017-06-12T06:59:33.909Z,8268
2017-06-12T07:00:33.920Z,8160
2017-06-12T07:01:33.580Z,7888
2017-06-12T07:02:34.508Z,7456
2017-06-12T07:03:33.900Z,7496
2017-06-12T07:04:34.198Z,4300
2017-06-12T07:05:33.852Z,3764
2017-06-12T07:06:34.478Z,4820
2017-06-12T07:07:34.147Z,5564
2017-06-12T07:08:34.138Z,5940
2017-06-12T07:09:34.126Z,6092
2017-06-12T07:10:34.454Z,7312
2017-06-12T07:11:34.109Z,7736
2017-06-12T07:12:33.782Z,8736
2017-06-12T07:13:34.089Z,7696
2017-06-12T07:14:34.079Z,7532
2017-06-12T07:15:34.088Z,8672
2017-06-12T07:16:34.139Z,7144
2017-06-12T07:17:34.080Z,6948
2017-06-12T07:18:34.767Z,16036
2017-06-12T07:19:33.428Z,43040
2017-06-12T07:20:33.713Z,6332
2017-06-12T07:21:34.044Z,7484
2017-06-12T07:22:33.712Z,8348
2017-06-12T07:23:34.021Z,9852
2017-06-12T07:24:34.021Z,9788
2017-06-12T07:25:34.017Z,13996
2017-06-12T07:26:33.993Z,8600
2017-06-12T07:27:34.002Z,7836
2017-06-12T07:28:33.966Z,36576
2017-06-12T07:29:34.271Z,5100
2017-06-12T07:30:33.941Z,5800
2017-06-12T07:31:33.310Z,6836
2017-06-12T07:32:33.604Z,6892
2017-06-12T07:33:34.219Z,6116
2017-06-12T07:34:33.582Z,6172
2017-06-12T07:35:33.576Z,7380
2017-06-12T07:36:33.567Z,8384
2017-06-12T07:37:33.871Z,22944
2017-06-12T07:38:33.231Z,8264
2017-06-12T07:39:34.172Z,9940
2017-06-12T07:40:33.842Z,19680
2017-06-12T07:41:33.839Z,15336
2017-06-12T07:42:34.188Z,7624
2017-06-12T07:43:34.170Z,47360
2017-06-12T07:44:34.122Z,6308
2017-06-12T07:45:33.803Z,6240
2017-06-12T07:46:33.804Z,4364
2017-06-12T07:47:33.801Z,3600
2017-06-12T07:48:33.816Z,4212
2017-06-12T07:49:33.775Z,32480
2017-06-12T07:50:34.083Z,56992
2017-06-12T07:51:33.755Z,57920
2017-06-12T07:52:33.743Z,59136
2017-06-12T07:53:33.430Z,11776
2017-06-12T07:54:34.063Z,8028
2017-06-12T07:55:34.036Z,5464
2017-06-12T07:56:34.035Z,6592
2017-06-12T07:57:33.717Z,53248
2017-06-12T07:58:33.713Z,35776
2017-06-12T07:59:33.385Z,55904
2017-06-12T08:00:33.696Z,54464
2017-06-12T08:01:33.701Z,51072
2017-06-12T08:02:34.000Z,49984
2017-06-12T08:03:33.680Z,49824
2017-06-12T08:04:33.369Z,50528
2017-06-12T08:05:33.348Z,24928
2017-06-12T08:06:33.982Z,58336
2017-06-12T08:07:33.666Z,9332
2017-06-12T08:08:33.685Z,27296
2017-06-12T08:09:33.975Z,14880
2017-06-12T08:10:33.649Z,51648
2017-06-12T08:11:33.639Z,21216
2017-06-12T08:12:33.638Z,12432
2017-06-12T08:13:33.955Z,12060
2017-06-12T08:14:33.310Z,44672
2017-06-12T08:15:33.616Z,11220
2017-06-12T08:16:33.307Z,10300
2017-06-12T08:17:33.921Z,71488
2017-06-12T08:18:33.608Z,20736
2017-06-12T08:19:33.924Z,8048
2017-06-12T08:20:32.980Z,5768
2017-06-12T08:21:33.591Z,5972
2017-06-12T08:22:33.276Z,7496
2017-06-12T08:23:33.919Z,9012
2017-06-12T08:24:33.584Z,41664
2017-06-12T08:25:33.572Z,17280
2017-06-12T08:26:33.566Z,6552
2017-06-12T08:27:33.561Z,7392
2017-06-12T08:28:33.557Z,8776
2017-06-12T08:29:33.554Z,36512
2017-06-12T08:30:33.854Z,9808
2017-06-12T08:31:33.535Z,64288
2017-06-12T08:32:33.532Z,68896
2017-06-12T08:33:33.867Z,16052
2017-06-12T08:34:33.526Z,73184
2017-06-12T08:35:33.212Z,70464
2017-06-12T08:36:33.511Z,66656
2017-06-12T08:37:32.904Z,61632
2017-06-12T08:38:33.828Z,60352
2017-06-12T08:39:33.500Z,61536
2017-06-12T08:40:33.490Z,16480
2017-06-12T08:41:33.493Z,66816
2017-06-12T08:42:33.485Z,70240
2017-06-12T08:43:33.491Z,10504
2017-06-12T08:44:33.168Z,9816
2017-06-12T08:45:33.501Z,11576
2017-06-12T08:46:33.166Z,13000
2017-06-12T08:47:33.808Z,11996
2017-06-12T08:48:33.786Z,54208
2017-06-12T08:49:33.783Z,77088
2017-06-12T08:50:33.150Z,18080
2017-06-12T08:51:33.147Z,13564
2017-06-12T08:52:33.146Z,10092
2017-06-12T08:53:33.457Z,8256
2017-06-12T08:54:33.764Z,5860
2017-06-12T08:55:33.134Z,6132
2017-06-12T08:56:33.752Z,9428
2017-06-12T08:57:33.434Z,21984
2017-06-12T08:58:33.426Z,15828
2017-06-12T08:59:33.422Z,13944
2017-06-12T09:00:33.726Z,9072
2017-06-12T09:01:33.455Z,10240
2017-06-12T09:02:33.740Z,16900
2017-06-12T09:03:33.411Z,33056
2017-06-12T09:04:33.399Z,47648
2017-06-12T09:05:33.700Z,68320
2017-06-12T09:06:32.762Z,22336
2017-06-12T09:07:33.402Z,33760
2017-06-12T09:08:33.061Z,10212
2017-06-12T09:09:33.726Z,11108
2017-06-12T09:10:33.065Z,13540
2017-06-12T09:11:33.384Z,13816
2017-06-12T09:12:33.369Z,7172
2017-06-12T09:13:33.029Z,5484
2017-06-12T09:14:33.039Z,5168
2017-06-12T09:15:32.710Z,5648
2017-06-12T09:16:33.408Z,7024
2017-06-12T09:17:33.320Z,8376
2017-06-12T09:18:33.311Z,7312
2017-06-12T09:19:32.997Z,7912
2017-06-12T09:20:33.310Z,9492
2017-06-12T09:21:33.290Z,15244
2017-06-12T09:22:32.977Z,8120
2017-06-12T09:23:33.600Z,9316
2017-06-12T09:24:33.276Z,11524
2017-06-12T09:25:33.583Z,44384
2017-06-12T09:26:33.576Z,75200
2017-06-12T09:27:33.572Z,67840
2017-06-12T09:28:33.256Z,79488
2017-06-12T09:29:32.986Z,83456
2017-06-12T09:30:32.978Z,21344
2017-06-12T09:31:33.546Z,73504
2017-06-12T09:32:32.942Z,15896
2017-06-12T09:33:33.237Z,12396
2017-06-12T09:34:33.541Z,8372
2017-06-12T09:35:33.560Z,6840
2017-06-12T09:36:32.916Z,7596
2017-06-12T09:37:33.522Z,9716
2017-06-12T09:38:33.549Z,11444
2017-06-12T09:39:33.203Z,12132
2017-06-12T09:40:33.208Z,18080
2017-06-12T09:41:33.192Z,86656
2017-06-12T09:42:33.206Z,77984
2017-06-12T09:43:32.865Z,28896
2017-06-12T09:44:33.187Z,73568
2017-06-12T09:45:33.481Z,72800
2017-06-12T09:46:33.684Z,75840
2017-06-12T09:47:33.208Z,78784
2017-06-12T09:48:33.045Z,82784
2017-06-12T09:49:32.837Z,84384
2017-06-12T09:50:33.466Z,86304
2017-06-12T09:51:33.459Z,83552
2017-06-12T09:52:33.462Z,83424
2017-06-12T09:53:32.825Z,15836
2017-06-12T09:54:33.144Z,83200
2017-06-12T09:55:33.137Z,85440
2017-06-12T09:56:33.137Z,88704
2017-06-12T09:57:33.182Z,90112
2017-06-12T09:58:33.133Z,30560
2017-06-12T09:59:33.134Z,84704
2017-06-12T10:00:32.499Z,32672
2017-06-12T10:01:33.127Z,17152
2017-06-12T10:02:33.182Z,78016
2017-06-12T10:03:32.814Z,79872
2017-06-12T10:04:32.810Z,80000
2017-06-12T10:05:32.808Z,83008
2017-06-12T10:06:33.443Z,64832
2017-06-12T10:07:33.126Z,85600
2017-06-12T10:08:33.136Z,56608
2017-06-12T10:09:32.505Z,19200
2017-06-12T10:10:32.814Z,17152
2017-06-12T10:11:32.813Z,18112
2017-06-12T10:12:32.818Z,20928
2017-06-12T10:13:32.545Z,19968
2017-06-12T10:14:33.124Z,19680
2017-06-12T10:15:32.809Z,21024
2017-06-12T10:16:33.119Z,19712
2017-06-12T10:17:33.109Z,34112
2017-06-12T10:18:33.114Z,16832
2017-06-12T10:19:33.113Z,15432
2017-06-12T10:20:33.113Z,14460
2017-06-12T10:21:32.795Z,16960
2017-06-12T10:22:33.419Z,19648
2017-06-12T10:23:33.415Z,15096
2017-06-12T10:24:32.785Z,18400
2017-06-12T10:25:32.779Z,23072
2017-06-12T10:26:32.458Z,31872
2017-06-12T10:27:33.075Z,28768
2017-06-12T10:28:33.074Z,22176
2017-06-12T10:29:33.387Z,18624
2017-06-12T10:30:33.073Z,27584
2017-06-12T10:31:32.751Z,72256
2017-06-12T10:32:32.747Z,44896
2017-06-12T10:33:33.053Z,22560
2017-06-12T10:34:33.054Z,13676
2017-06-12T10:35:33.388Z,11588
2017-06-12T10:36:33.060Z,10484
2017-06-12T10:37:33.353Z,10192
2017-06-12T10:38:33.045Z,9772
2017-06-12T10:39:32.716Z,9092
2017-06-12T10:40:32.707Z,9120
2017-06-12T10:41:33.018Z,9368
2017-06-12T10:42:33.353Z,9952
2017-06-12T10:43:33.318Z,9360
2017-06-12T10:44:33.315Z,8552
2017-06-12T10:45:32.703Z,8052
2017-06-12T10:46:32.996Z,8056
2017-06-12T10:47:32.674Z,8484
2017-06-12T10:48:32.995Z,8948
2017-06-12T10:49:32.666Z,9312
2017-06-12T10:50:32.970Z,9460
2017-06-12T10:51:32.968Z,9084
2017-06-12T10:52:32.642Z,8444
2017-06-12T10:53:32.328Z,8820
2017-06-12T10:54:32.637Z,8976
2017-06-12T10:55:32.364Z,8584
2017-06-12T10:56:32.932Z,7604
2017-06-12T10:57:32.922Z,6756
2017-06-12T10:58:32.605Z,6276
2017-06-12T10:59:32.915Z,6128
2017-06-12T11:00:32.906Z,5796
2017-06-12T11:01:32.899Z,5692
2017-06-12T11:02:32.891Z,5380
2017-06-12T11:03:32.889Z,5084
2017-06-12T11:04:32.935Z,5588
2017-06-12T11:05:32.870Z,6680
2017-06-12T11:06:32.553Z,7644
2017-06-12T11:07:32.851Z,7636
2017-06-12T11:08:32.847Z,7856
2017-06-12T11:09:32.892Z,7952
2017-06-12T11:10:33.153Z,8252
2017-06-12T11:11:32.517Z,8704
2017-06-12T11:12:32.817Z,8432
2017-06-12T11:13:32.814Z,7672
2017-06-12T11:14:32.172Z,7024
2017-06-12T11:15:32.799Z,6252
2017-06-12T11:16:33.104Z,5408
2017-06-12T11:17:32.179Z,4596
2017-06-12T11:18:32.457Z,4504
2017-06-12T11:19:32.968Z,5120
2017-06-12T11:20:32.447Z,6220
2017-06-12T11:21:32.439Z,7200
2017-06-12T11:22:32.748Z,7856
2017-06-12T11:23:32.422Z,8368
2017-06-12T11:24:33.040Z,8656
2017-06-12T11:25:32.714Z,9028
2017-06-12T11:26:32.397Z,9936
2017-06-12T11:27:33.008Z,11040
2017-06-12T11:28:32.690Z,11088
2017-06-12T11:29:33.023Z,10008
2017-06-12T11:30:32.674Z,8780
2017-06-12T11:31:32.353Z,8872
2017-06-12T11:32:32.660Z,9260
2017-06-12T11:33:32.029Z,8756
2017-06-12T11:34:32.349Z,8488
2017-06-12T11:35:32.643Z,7884
2017-06-12T11:36:32.943Z,7536
2017-06-12T11:37:31.993Z,7440
2017-06-12T11:38:32.299Z,6680
2017-06-12T11:39:32.289Z,6224
2017-06-12T11:40:32.909Z,6720
2017-06-12T11:41:32.591Z,7592
2017-06-12T11:42:32.280Z,8360
2017-06-12T11:43:32.885Z,9640
2017-06-12T11:44:32.559Z,11692
2017-06-12T11:45:32.245Z,14076
2017-06-12T11:46:32.239Z,17280
2017-06-12T11:47:32.227Z,21632
2017-06-12T11:48:32.857Z,29632
2017-06-12T11:49:32.531Z,37888
2017-06-12T11:50:32.206Z,24736
2017-06-12T11:51:32.516Z,18944
2017-06-12T11:52:32.816Z,14024
2017-06-12T11:53:32.494Z,12228
2017-06-12T11:54:32.497Z,11136
2017-06-12T11:55:31.862Z,10160
2017-06-12T11:56:32.792Z,9384
2017-06-12T11:57:32.178Z,8700
2017-06-12T11:58:32.773Z,7816
2017-06-12T11:59:31.831Z,7096
2017-06-12T12:00:32.769Z,6052
2017-06-12T12:01:32.437Z,5384
2017-06-12T12:02:32.119Z,5412
2017-06-12T12:03:32.108Z,6104
2017-06-12T12:04:32.415Z,6672
2017-06-12T12:05:31.982Z,6356
2017-06-12T12:06:32.716Z,6736
2017-06-12T12:07:32.387Z,7804
2017-06-12T12:08:32.390Z,9160
2017-06-12T12:09:32.374Z,10556
2017-06-12T12:10:32.374Z,11956
2017-06-12T12:11:32.049Z,11512
2017-06-12T12:12:31.726Z,10860
2017-06-12T12:13:32.344Z,11492
2017-06-12T12:14:32.030Z,13268
2017-06-12T12:15:32.325Z,16608
2017-06-12T12:16:32.012Z,21920
2017-06-12T12:17:32.314Z,22560
2017-06-12T12:18:32.313Z,21408
2017-06-12T12:19:31.991Z,20128
2017-06-12T12:20:31.668Z,17504
2017-06-12T12:21:32.283Z,14232
2017-06-12T12:22:32.591Z,12232
2017-06-12T12:23:32.272Z,11208
2017-06-12T12:24:31.953Z,10392
2017-06-12T12:25:32.261Z,9572
2017-06-12T12:26:32.254Z,8640
2017-06-12T12:27:32.552Z,7840
2017-06-12T12:28:32.238Z,7392
2017-06-12T12:29:32.254Z,7472
2017-06-12T12:30:31.959Z,8380
2017-06-12T12:31:32.213Z,9892
2017-06-12T12:32:32.219Z,11184
2017-06-12T12:33:32.196Z,12012
2017-06-12T12:34:31.873Z,12824
2017-06-12T12:35:32.492Z,12712
2017-06-12T12:36:32.381Z,12600
2017-06-12T12:37:31.542Z,12556
2017-06-12T12:38:32.164Z,12588
2017-06-12T12:39:32.157Z,12488
2017-06-12T12:40:31.833Z,12284
2017-06-12T12:41:32.138Z,11636
2017-06-12T12:42:31.817Z,10664
2017-06-12T12:43:32.124Z,10040
2017-06-12T12:44:32.114Z,9912
2017-06-12T12:45:32.163Z,10028
2017-06-12T12:46:32.116Z,10260
2017-06-12T12:47:32.405Z,10076
2017-06-12T12:48:31.774Z,10124
2017-06-12T12:49:32.084Z,11796
2017-06-12T12:50:31.762Z,14548
2017-06-12T12:51:32.378Z,17664
2017-06-12T12:52:32.054Z,19264
2017-06-12T12:53:32.054Z,18464
2017-06-12T12:54:32.044Z,17824
2017-06-12T12:55:32.046Z,19904
2017-06-12T12:56:32.028Z,22080
2017-06-12T12:57:31.710Z,25344
2017-06-12T12:58:32.336Z,34208
2017-06-12T12:59:31.706Z,96704
2017-06-12T13:00:31.694Z,28736
2017-06-12T13:01:31.994Z,50720
2017-06-12T13:02:31.676Z,82880
2017-06-12T13:03:31.980Z,17760
2017-06-12T13:04:31.670Z,14204
2017-06-12T13:05:31.995Z,13472
2017-06-12T13:06:32.281Z,13288
2017-06-12T13:07:32.019Z,14856
2017-06-12T13:08:31.951Z,14292
2017-06-12T13:09:31.955Z,14344
2017-06-12T13:10:31.640Z,17984
2017-06-12T13:11:31.942Z,26432
2017-06-12T13:12:31.620Z,27072
2017-06-12T13:13:31.614Z,25696
2017-06-12T13:14:31.616Z,27072
2017-06-12T13:15:31.917Z,23936
2017-06-12T13:16:32.222Z,21088
2017-06-12T13:17:31.900Z,19328
2017-06-12T13:18:31.893Z,15676
2017-06-12T13:19:32.423Z,13812
2017-06-12T13:20:31.581Z,12364
2017-06-12T13:21:31.879Z,11972
2017-06-12T13:22:32.189Z,10376
2017-06-12T13:23:31.874Z,9384
2017-06-12T13:24:31.864Z,9268
2017-06-12T13:25:31.857Z,11080
2017-06-12T13:26:31.885Z,11240
2017-06-12T13:27:32.160Z,11716
2017-06-12T13:28:31.225Z,11300
2017-06-12T13:29:31.214Z,9876
2017-06-12T13:30:31.516Z,10500